sensor_id;sensor_type;location;lat;lon;timestamp;temperature;humidity
3678;DHT22;1855;50.934;6.958;2023-05-01T00:01:18;13.30;70.60
3678;DHT22;1855;50.934;6.958;2023-05-01T00:03:46;13.30;71.20
3678;DHT22;1855;50.934;6.958;2023-05-01T00:06:12;13.30;70.90
3678;DHT22;1855;50.934;6.958;2023-05-01T00:08:39;13.30;70.20
3678;DHT22;1855;50.934;6.958;2023-05-01T00:11:06;13.30;70.20
3678;DHT22;1855;50.934;6.958;2023-05-01T00:13:34;13.30;69.80
3678;DHT22;1855;50.934;6.958;2023-05-01T00:16:01;13.30;70.40
3678;DHT22;1855;50.934;6.958;2023-05-01T00:18:29;13.30;71.20
3678;DHT22;1855;50.934;6.958;2023-05-01T00:20:57;13.30;70.40
3678;DHT22;1855;50.934;6.958;2023-05-01T00:23:23;13.30;70.90
3678;DHT22;1855;50.934;6.958;2023-05-01T00:25:50;13.30;69.80
3678;DHT22;1855;50.934;6.958;2023-05-01T00:28:17;13.30;70.30
3678;DHT22;1855;50.934;6.958;2023-05-01T00:30:44;13.30;69.60
3678;DHT22;1855;50.934;6.958;2023-05-01T00:33:11;13.30;69.50
3678;DHT22;1855;50.934;6.958;2023-05-01T00:35:38;13.30;69.80
3678;DHT22;1855;50.934;6.958;2023-05-01T00:38:07;13.30;69.80
3678;DHT22;1855;50.934;6.958;2023-05-01T00:40:40;13.30;69.60
3678;DHT22;1855;50.934;6.958;2023-05-01T00:43:07;13.30;69.70
3678;DHT22;1855;50.934;6.958;2023-05-01T00:45:34;13.30;69.00
3678;DHT22;1855;50.934;6.958;2023-05-01T00:48:01;13.20;70.40
3678;DHT22;1855;50.934;6.958;2023-05-01T00:50:28;13.20;69.90
3678;DHT22;1855;50.934;6.958;2023-05-01T00:52:55;13.20;70.50
3678;DHT22;1855;50.934;6.958;2023-05-01T00:55:24;13.20;69.60
3678;DHT22;1855;50.934;6.958;2023-05-01T00:57:52;13.20;69.10
3678;DHT22;1855;50.934;6.958;2023-05-01T01:00:19;13.20;69.00
3678;DHT22;1855;50.934;6.958;2023-05-01T01:02:49;13.20;67.90
3678;DHT22;1855;50.934;6.958;2023-05-01T01:05:15;13.20;69.70
3678;DHT22;1855;50.934;6.958;2023-05-01T01:07:48;13.20;68.10
3678;DHT22;1855;50.934;6.958;2023-05-01T01:10:26;13.20;68.20
3678;DHT22;1855;50.934;6.958;2023-05-01T01:13:03;13.20;67.80
3678;DHT22;1855;50.934;6.958;2023-05-01T01:15:34;13.20;67.90
3678;DHT22;1855;50.934;6.958;2023-05-01T01:18:06;13.20;67.80
3678;DHT22;1855;50.934;6.958;2023-05-01T01:20:37;13.20;66.70
3678;DHT22;1855;50.934;6.958;2023-05-01T01:29:38;13.20;69.20
3678;DHT22;1855;50.934;6.958;2023-05-01T01:32:14;13.20;69.90
3678;DHT22;1855;50.934;6.958;2023-05-01T01:34:50;13.20;70.90
3678;DHT22;1855;50.934;6.958;2023-05-01T01:37:21;13.20;71.40
3678;DHT22;1855;50.934;6.958;2023-05-01T01:39:52;13.20;70.40
3678;DHT22;1855;50.934;6.958;2023-05-01T01:42:23;13.20;70.30
3678;DHT22;1855;50.934;6.958;2023-05-01T01:44:54;13.10;69.00
3678;DHT22;1855;50.934;6.958;2023-05-01T01:47:25;13.10;69.50
3678;DHT22;1855;50.934;6.958;2023-05-01T01:49:55;13.10;69.60
3678;DHT22;1855;50.934;6.958;2023-05-01T01:52:23;13.10;70.50
3678;DHT22;1855;50.934;6.958;2023-05-01T01:54:54;13.10;70.10
3678;DHT22;1855;50.934;6.958;2023-05-01T01:57:23;13.10;70.40
3678;DHT22;1855;50.934;6.958;2023-05-01T01:59:52;13.10;69.50
3678;DHT22;1855;50.934;6.958;2023-05-01T02:02:20;13.10;70.50
3678;DHT22;1855;50.934;6.958;2023-05-01T02:04:48;13.00;70.80
3678;DHT22;1855;50.934;6.958;2023-05-01T02:07:18;13.00;70.60
3678;DHT22;1855;50.934;6.958;2023-05-01T02:09:48;13.00;69.80
3678;DHT22;1855;50.934;6.958;2023-05-01T02:12:17;13.00;69.70
3678;DHT22;1855;50.934;6.958;2023-05-01T02:14:45;13.00;69.80
3678;DHT22;1855;50.934;6.958;2023-05-01T02:17:14;13.00;70.30
3678;DHT22;1855;50.934;6.958;2023-05-01T02:19:42;13.00;70.40
3678;DHT22;1855;50.934;6.958;2023-05-01T02:22:10;13.00;70.70
3678;DHT22;1855;50.934;6.958;2023-05-01T02:24:41;13.00;71.00
3678;DHT22;1855;50.934;6.958;2023-05-01T02:27:12;13.00;70.30
3678;DHT22;1855;50.934;6.958;2023-05-01T02:29:40;13.00;71.10
3678;DHT22;1855;50.934;6.958;2023-05-01T02:32:07;13.00;70.90
3678;DHT22;1855;50.934;6.958;2023-05-01T02:34:34;13.00;70.00
3678;DHT22;1855;50.934;6.958;2023-05-01T02:37:01;13.00;70.50
3678;DHT22;1855;50.934;6.958;2023-05-01T02:39:28;12.90;70.30
3678;DHT22;1855;50.934;6.958;2023-05-01T02:41:57;12.90;70.50
3678;DHT22;1855;50.934;6.958;2023-05-01T02:44:25;12.90;70.70
3678;DHT22;1855;50.934;6.958;2023-05-01T02:46:54;12.90;70.60
3678;DHT22;1855;50.934;6.958;2023-05-01T02:49:22;12.90;70.70
3678;DHT22;1855;50.934;6.958;2023-05-01T02:51:49;12.90;71.70
3678;DHT22;1855;50.934;6.958;2023-05-01T02:54:16;12.90;71.20
3678;DHT22;1855;50.934;6.958;2023-05-01T02:56:43;12.90;71.90
3678;DHT22;1855;50.934;6.958;2023-05-01T02:59:11;12.80;72.70
3678;DHT22;1855;50.934;6.958;2023-05-01T03:01:38;12.90;72.80
3678;DHT22;1855;50.934;6.958;2023-05-01T03:04:05;12.80;73.60
3678;DHT22;1855;50.934;6.958;2023-05-01T03:06:32;12.80;72.60
3678;DHT22;1855;50.934;6.958;2023-05-01T03:08:58;12.80;73.00
3678;DHT22;1855;50.934;6.958;2023-05-01T03:11:25;12.70;73.30
3678;DHT22;1855;50.934;6.958;2023-05-01T03:13:52;12.70;73.70
3678;DHT22;1855;50.934;6.958;2023-05-01T03:16:20;12.70;74.30
3678;DHT22;1855;50.934;6.958;2023-05-01T03:18:47;12.70;74.00
3678;DHT22;1855;50.934;6.958;2023-05-01T03:21:14;12.60;74.40
3678;DHT22;1855;50.934;6.958;2023-05-01T03:23:40;12.60;75.00
3678;DHT22;1855;50.934;6.958;2023-05-01T03:26:07;12.60;74.40
3678;DHT22;1855;50.934;6.958;2023-05-01T03:28:34;12.60;74.10
3678;DHT22;1855;50.934;6.958;2023-05-01T03:31:00;12.50;73.90
3678;DHT22;1855;50.934;6.958;2023-05-01T03:33:28;12.50;74.50
3678;DHT22;1855;50.934;6.958;2023-05-01T03:35:59;12.40;75.20
3678;DHT22;1855;50.934;6.958;2023-05-01T03:38:28;12.40;75.60
3678;DHT22;1855;50.934;6.958;2023-05-01T03:40:55;12.40;75.20
3678;DHT22;1855;50.934;6.958;2023-05-01T03:43:22;12.30;75.90
3678;DHT22;1855;50.934;6.958;2023-05-01T03:45:49;12.30;76.50
3678;DHT22;1855;50.934;6.958;2023-05-01T03:48:16;12.20;76.20
3678;DHT22;1855;50.934;6.958;2023-05-01T03:50:44;12.20;76.60
3678;DHT22;1855;50.934;6.958;2023-05-01T03:53:12;12.20;76.90
3678;DHT22;1855;50.934;6.958;2023-05-01T03:55:39;12.10;77.40
3678;DHT22;1855;50.934;6.958;2023-05-01T03:58:06;12.20;78.40
3678;DHT22;1855;50.934;6.958;2023-05-01T04:00:33;12.10;78.70
3678;DHT22;1855;50.934;6.958;2023-05-01T04:02:59;12.10;79.40
3678;DHT22;1855;50.934;6.958;2023-05-01T04:05:26;12.10;79.80
3678;DHT22;1855;50.934;6.958;2023-05-01T04:07:54;12.10;80.30
3678;DHT22;1855;50.934;6.958;2023-05-01T04:10:21;12.10;80.00
3678;DHT22;1855;50.934;6.958;2023-05-01T04:12:48;12.00;80.10
3678;DHT22;1855;50.934;6.958;2023-05-01T04:15:15;12.00;80.50
3678;DHT22;1855;50.934;6.958;2023-05-01T04:17:42;12.00;80.80
3678;DHT22;1855;50.934;6.958;2023-05-01T04:20:09;11.90;81.20
3678;DHT22;1855;50.934;6.958;2023-05-01T04:22:36;11.90;80.60
3678;DHT22;1855;50.934;6.958;2023-05-01T04:25:05;11.90;79.70
3678;DHT22;1855;50.934;6.958;2023-05-01T04:27:33;11.90;80.40
3678;DHT22;1855;50.934;6.958;2023-05-01T04:30:00;11.80;80.60
3678;DHT22;1855;50.934;6.958;2023-05-01T04:32:26;11.80;81.10
3678;DHT22;1855;50.934;6.958;2023-05-01T04:34:53;11.80;80.60
3678;DHT22;1855;50.934;6.958;2023-05-01T04:37:20;11.80;81.00
3678;DHT22;1855;50.934;6.958;2023-05-01T04:39:46;11.80;81.50
3678;DHT22;1855;50.934;6.958;2023-05-01T04:42:15;11.80;81.60
3678;DHT22;1855;50.934;6.958;2023-05-01T04:44:41;11.80;81.60
3678;DHT22;1855;50.934;6.958;2023-05-01T04:47:08;11.80;81.40
3678;DHT22;1855;50.934;6.958;2023-05-01T04:49:36;11.80;81.70
3678;DHT22;1855;50.934;6.958;2023-05-01T04:52:03;11.80;81.40
3678;DHT22;1855;50.934;6.958;2023-05-01T04:54:30;11.90;82.90
3678;DHT22;1855;50.934;6.958;2023-05-01T04:56:56;11.90;81.40
3678;DHT22;1855;50.934;6.958;2023-05-01T04:59:24;11.90;81.70
3678;DHT22;1855;50.934;6.958;2023-05-01T05:01:51;11.90;80.70
3678;DHT22;1855;50.934;6.958;2023-05-01T05:04:18;12.00;81.60
3678;DHT22;1855;50.934;6.958;2023-05-01T05:06:44;12.00;81.40
3678;DHT22;1855;50.934;6.958;2023-05-01T05:09:11;12.00;81.00
3678;DHT22;1855;50.934;6.958;2023-05-01T05:11:38;12.10;80.30
3678;DHT22;1855;50.934;6.958;2023-05-01T05:14:05;12.10;80.10
3678;DHT22;1855;50.934;6.958;2023-05-01T05:16:33;12.10;80.00
3678;DHT22;1855;50.934;6.958;2023-05-01T05:19:00;12.10;79.90
3678;DHT22;1855;50.934;6.958;2023-05-01T05:21:27;12.20;79.90
3678;DHT22;1855;50.934;6.958;2023-05-01T05:23:54;12.20;79.70
3678;DHT22;1855;50.934;6.958;2023-05-01T05:26:20;12.20;79.30
3678;DHT22;1855;50.934;6.958;2023-05-01T05:28:49;12.20;79.50
3678;DHT22;1855;50.934;6.958;2023-05-01T05:31:15;12.20;79.50
3678;DHT22;1855;50.934;6.958;2023-05-01T05:33:43;12.30;78.00
3678;DHT22;1855;50.934;6.958;2023-05-01T05:36:10;12.30;77.30
3678;DHT22;1855;50.934;6.958;2023-05-01T05:38:37;12.30;77.40
3678;DHT22;1855;50.934;6.958;2023-05-01T05:41:05;12.30;76.60
3678;DHT22;1855;50.934;6.958;2023-05-01T05:43:31;12.30;76.80
3678;DHT22;1855;50.934;6.958;2023-05-01T05:45:58;12.40;76.60
3678;DHT22;1855;50.934;6.958;2023-05-01T05:48:25;12.40;76.60
3678;DHT22;1855;50.934;6.958;2023-05-01T05:50:53;12.40;76.60
3678;DHT22;1855;50.934;6.958;2023-05-01T05:53:21;12.40;77.40
3678;DHT22;1855;50.934;6.958;2023-05-01T05:55:48;12.50;76.50
3678;DHT22;1855;50.934;6.958;2023-05-01T05:58:14;12.60;76.30
3678;DHT22;1855;50.934;6.958;2023-05-01T06:00:45;12.60;76.20
3678;DHT22;1855;50.934;6.958;2023-05-01T06:03:13;12.70;75.80
3678;DHT22;1855;50.934;6.958;2023-05-01T06:05:40;12.80;75.50
3678;DHT22;1855;50.934;6.958;2023-05-01T06:08:08;12.80;75.80
3678;DHT22;1855;50.934;6.958;2023-05-01T06:10:36;12.90;74.80
3678;DHT22;1855;50.934;6.958;2023-05-01T06:13:04;12.90;74.90
3678;DHT22;1855;50.934;6.958;2023-05-01T06:15:30;13.00;74.50
3678;DHT22;1855;50.934;6.958;2023-05-01T06:17:58;13.00;74.30
3678;DHT22;1855;50.934;6.958;2023-05-01T06:20:24;13.10;74.30
3678;DHT22;1855;50.934;6.958;2023-05-01T06:22:51;13.10;73.40
3678;DHT22;1855;50.934;6.958;2023-05-01T06:25:19;13.20;72.50
3678;DHT22;1855;50.934;6.958;2023-05-01T06:27:47;13.20;72.90
3678;DHT22;1855;50.934;6.958;2023-05-01T06:30:13;13.30;72.60
3678;DHT22;1855;50.934;6.958;2023-05-01T06:32:40;13.40;72.60
3678;DHT22;1855;50.934;6.958;2023-05-01T06:35:08;13.50;71.20
3678;DHT22;1855;50.934;6.958;2023-05-01T06:37:35;13.50;70.90
3678;DHT22;1855;50.934;6.958;2023-05-01T06:40:03;13.50;71.10
3678;DHT22;1855;50.934;6.958;2023-05-01T06:42:31;13.50;71.10
3678;DHT22;1855;50.934;6.958;2023-05-01T06:44:58;13.60;70.90
3678;DHT22;1855;50.934;6.958;2023-05-01T06:47:25;13.60;71.00
3678;DHT22;1855;50.934;6.958;2023-05-01T06:49:52;13.60;70.20
3678;DHT22;1855;50.934;6.958;2023-05-01T06:52:18;13.70;70.20
3678;DHT22;1855;50.934;6.958;2023-05-01T06:54:45;13.70;70.60
3678;DHT22;1855;50.934;6.958;2023-05-01T06:57:12;13.80;70.00
3678;DHT22;1855;50.934;6.958;2023-05-01T06:59:40;13.80;69.90
3678;DHT22;1855;50.934;6.958;2023-05-01T07:02:07;13.90;69.90
3678;DHT22;1855;50.934;6.958;2023-05-01T07:04:33;14.00;68.80
3678;DHT22;1855;50.934;6.958;2023-05-01T07:07:00;14.00;68.70
3678;DHT22;1855;50.934;6.958;2023-05-01T07:09:27;14.10;68.90
3678;DHT22;1855;50.934;6.958;2023-05-01T07:11:54;14.10;68.40
3678;DHT22;1855;50.934;6.958;2023-05-01T07:14:21;14.20;68.30
3678;DHT22;1855;50.934;6.958;2023-05-01T07:16:50;14.30;67.10
3678;DHT22;1855;50.934;6.958;2023-05-01T07:19:16;14.30;67.10
3678;DHT22;1855;50.934;6.958;2023-05-01T07:21:43;14.40;66.80
3678;DHT22;1855;50.934;6.958;2023-05-01T07:24:10;14.40;65.00
3678;DHT22;1855;50.934;6.958;2023-05-01T07:26:37;14.40;64.10
3678;DHT22;1855;50.934;6.958;2023-05-01T07:29:04;14.40;65.10
3678;DHT22;1855;50.934;6.958;2023-05-01T07:31:31;14.40;64.30
3678;DHT22;1855;50.934;6.958;2023-05-01T07:33:59;14.50;64.30
3678;DHT22;1855;50.934;6.958;2023-05-01T07:36:26;14.60;62.30
3678;DHT22;1855;50.934;6.958;2023-05-01T07:38:52;14.60;61.80
3678;DHT22;1855;50.934;6.958;2023-05-01T07:41:19;14.70;61.90
3678;DHT22;1855;50.934;6.958;2023-05-01T07:43:47;14.80;61.50
3678;DHT22;1855;50.934;6.958;2023-05-01T07:46:14;14.80;61.70
3678;DHT22;1855;50.934;6.958;2023-05-01T07:48:41;14.90;61.50
3678;DHT22;1855;50.934;6.958;2023-05-01T07:51:10;15.00;61.30
3678;DHT22;1855;50.934;6.958;2023-05-01T07:53:36;15.00;61.00
3678;DHT22;1855;50.934;6.958;2023-05-01T07:56:06;15.10;60.70
3678;DHT22;1855;50.934;6.958;2023-05-01T07:58:33;15.10;59.70
3678;DHT22;1855;50.934;6.958;2023-05-01T08:01:00;15.10;60.60
3678;DHT22;1855;50.934;6.958;2023-05-01T08:03:27;15.10;60.50
3678;DHT22;1855;50.934;6.958;2023-05-01T08:05:55;15.20;61.30
3678;DHT22;1855;50.934;6.958;2023-05-01T08:08:23;15.30;61.00
3678;DHT22;1855;50.934;6.958;2023-05-01T08:10:50;15.40;60.20
3678;DHT22;1855;50.934;6.958;2023-05-01T08:13:19;15.50;59.90
3678;DHT22;1855;50.934;6.958;2023-05-01T08:15:46;15.60;59.50
3678;DHT22;1855;50.934;6.958;2023-05-01T08:18:13;15.60;59.20
3678;DHT22;1855;50.934;6.958;2023-05-01T08:20:44;15.80;58.50
3678;DHT22;1855;50.934;6.958;2023-05-01T08:23:12;15.80;58.40
3678;DHT22;1855;50.934;6.958;2023-05-01T08:25:40;15.90;57.90
3678;DHT22;1855;50.934;6.958;2023-05-01T08:28:08;16.10;56.70
3678;DHT22;1855;50.934;6.958;2023-05-01T08:30:34;16.30;55.60
3678;DHT22;1855;50.934;6.958;2023-05-01T08:33:01;16.30;55.00
3678;DHT22;1855;50.934;6.958;2023-05-01T08:35:28;16.30;55.20
3678;DHT22;1855;50.934;6.958;2023-05-01T08:37:55;16.50;55.30
3678;DHT22;1855;50.934;6.958;2023-05-01T08:40:23;16.70;54.80
3678;DHT22;1855;50.934;6.958;2023-05-01T08:42:53;16.90;53.30
3678;DHT22;1855;50.934;6.958;2023-05-01T08:45:23;17.00;52.90
3678;DHT22;1855;50.934;6.958;2023-05-01T08:47:51;16.90;52.50
3678;DHT22;1855;50.934;6.958;2023-05-01T08:50:18;16.90;52.10
3678;DHT22;1855;50.934;6.958;2023-05-01T08:52:45;17.10;51.70
3678;DHT22;1855;50.934;6.958;2023-05-01T08:55:14;17.30;51.10
3678;DHT22;1855;50.934;6.958;2023-05-01T08:57:44;17.30;50.40
3678;DHT22;1855;50.934;6.958;2023-05-01T09:00:16;17.20;51.10
3678;DHT22;1855;50.934;6.958;2023-05-01T09:02:45;17.30;50.20
3678;DHT22;1855;50.934;6.958;2023-05-01T09:05:13;17.40;50.60
3678;DHT22;1855;50.934;6.958;2023-05-01T09:07:41;17.60;50.10
3678;DHT22;1855;50.934;6.958;2023-05-01T09:10:10;17.90;49.40
3678;DHT22;1855;50.934;6.958;2023-05-01T09:12:37;18.00;48.10
3678;DHT22;1855;50.934;6.958;2023-05-01T09:15:06;17.90;48.50
3678;DHT22;1855;50.934;6.958;2023-05-01T09:17:35;18.00;49.60
3678;DHT22;1855;50.934;6.958;2023-05-01T09:20:03;18.00;47.80
3678;DHT22;1855;50.934;6.958;2023-05-01T09:22:31;18.10;48.20
3678;DHT22;1855;50.934;6.958;2023-05-01T09:24:58;18.10;48.10
3678;DHT22;1855;50.934;6.958;2023-05-01T09:27:25;18.10;49.10
3678;DHT22;1855;50.934;6.958;2023-05-01T09:29:54;18.10;48.20
3678;DHT22;1855;50.934;6.958;2023-05-01T09:32:23;18.10;48.30
3678;DHT22;1855;50.934;6.958;2023-05-01T09:34:54;18.20;48.60
3678;DHT22;1855;50.934;6.958;2023-05-01T09:37:26;18.30;48.40
3678;DHT22;1855;50.934;6.958;2023-05-01T09:40:03;18.60;48.40
3678;DHT22;1855;50.934;6.958;2023-05-01T09:42:30;18.70;46.90
3678;DHT22;1855;50.934;6.958;2023-05-01T09:44:58;18.70;47.00
3678;DHT22;1855;50.934;6.958;2023-05-01T09:47:25;18.80;47.80
3678;DHT22;1855;50.934;6.958;2023-05-01T09:49:55;19.00;47.10
3678;DHT22;1855;50.934;6.958;2023-05-01T09:52:24;19.20;46.30
3678;DHT22;1855;50.934;6.958;2023-05-01T09:55:10;19.40;45.80
3678;DHT22;1855;50.934;6.958;2023-05-01T09:57:38;19.60;46.20
3678;DHT22;1855;50.934;6.958;2023-05-01T10:00:08;19.80;45.30
3678;DHT22;1855;50.934;6.958;2023-05-01T10:02:35;20.10;44.30
3678;DHT22;1855;50.934;6.958;2023-05-01T10:05:04;20.20;44.10
3678;DHT22;1855;50.934;6.958;2023-05-01T10:07:32;20.30;43.90
3678;DHT22;1855;50.934;6.958;2023-05-01T10:10:13;20.50;43.50
3678;DHT22;1855;50.934;6.958;2023-05-01T10:12:40;20.70;43.80
3678;DHT22;1855;50.934;6.958;2023-05-01T10:15:08;21.10;42.70
3678;DHT22;1855;50.934;6.958;2023-05-01T10:17:38;21.50;41.70
3678;DHT22;1855;50.934;6.958;2023-05-01T10:20:07;21.80;40.90
3678;DHT22;1855;50.934;6.958;2023-05-01T10:22:36;22.00;40.30
3678;DHT22;1855;50.934;6.958;2023-05-01T10:25:06;22.20;39.90
3678;DHT22;1855;50.934;6.958;2023-05-01T10:27:33;22.40;39.00
3678;DHT22;1855;50.934;6.958;2023-05-01T10:30:02;22.50;38.10
3678;DHT22;1855;50.934;6.958;2023-05-01T10:32:30;22.60;38.50
3678;DHT22;1855;50.934;6.958;2023-05-01T10:35:00;22.80;37.30
3678;DHT22;1855;50.934;6.958;2023-05-01T10:37:35;23.00;37.90
3678;DHT22;1855;50.934;6.958;2023-05-01T10:43:13;23.40;36.80
3678;DHT22;1855;50.934;6.958;2023-05-01T10:45:41;23.70;34.90
3678;DHT22;1855;50.934;6.958;2023-05-01T10:48:08;23.90;34.80
3678;DHT22;1855;50.934;6.958;2023-05-01T10:50:45;24.20;36.10
3678;DHT22;1855;50.934;6.958;2023-05-01T10:53:33;24.30;34.60
3678;DHT22;1855;50.934;6.958;2023-05-01T10:56:00;24.30;35.00
3678;DHT22;1855;50.934;6.958;2023-05-01T10:58:59;24.30;34.90
3678;DHT22;1855;50.934;6.958;2023-05-01T11:01:30;24.40;34.20
3678;DHT22;1855;50.934;6.958;2023-05-01T11:03:58;24.50;34.30
3678;DHT22;1855;50.934;6.958;2023-05-01T11:06:25;24.50;34.20
3678;DHT22;1855;50.934;6.958;2023-05-01T11:08:54;24.40;34.10
3678;DHT22;1855;50.934;6.958;2023-05-01T11:11:46;24.30;33.40
3678;DHT22;1855;50.934;6.958;2023-05-01T11:14:16;24.40;34.00
3678;DHT22;1855;50.934;6.958;2023-05-01T11:16:44;24.40;33.70
3678;DHT22;1855;50.934;6.958;2023-05-01T11:19:45;24.50;34.00
3678;DHT22;1855;50.934;6.958;2023-05-01T11:22:15;24.60;33.60
3678;DHT22;1855;50.934;6.958;2023-05-01T11:24:44;24.70;32.50
3678;DHT22;1855;50.934;6.958;2023-05-01T11:27:13;24.90;30.80
3678;DHT22;1855;50.934;6.958;2023-05-01T11:29:43;25.00;32.30
3678;DHT22;1855;50.934;6.958;2023-05-01T11:32:15;25.00;32.30
3678;DHT22;1855;50.934;6.958;2023-05-01T11:34:43;25.00;31.70
3678;DHT22;1855;50.934;6.958;2023-05-01T11:37:11;25.10;30.40
3678;DHT22;1855;50.934;6.958;2023-05-01T11:39:50;25.00;30.10
3678;DHT22;1855;50.934;6.958;2023-05-01T11:42:19;25.00;31.60
3678;DHT22;1855;50.934;6.958;2023-05-01T11:45:05;25.00;30.00
3678;DHT22;1855;50.934;6.958;2023-05-01T11:47:32;24.80;31.20
3678;DHT22;1855;50.934;6.958;2023-05-01T11:49:59;24.60;32.10
3678;DHT22;1855;50.934;6.958;2023-05-01T11:52:27;24.50;30.80
3678;DHT22;1855;50.934;6.958;2023-05-01T11:54:55;24.30;30.00
3678;DHT22;1855;50.934;6.958;2023-05-01T11:57:22;24.00;31.80
3678;DHT22;1855;50.934;6.958;2023-05-01T11:59:49;23.90;31.70
3678;DHT22;1855;50.934;6.958;2023-05-01T12:02:19;23.80;31.40
3678;DHT22;1855;50.934;6.958;2023-05-01T12:04:46;23.70;32.40
3678;DHT22;1855;50.934;6.958;2023-05-01T12:07:20;23.80;32.80
3678;DHT22;1855;50.934;6.958;2023-05-01T12:09:48;23.90;32.70
3678;DHT22;1855;50.934;6.958;2023-05-01T12:12:17;23.90;31.20
3678;DHT22;1855;50.934;6.958;2023-05-01T12:14:43;23.90;31.20
3678;DHT22;1855;50.934;6.958;2023-05-01T12:17:10;23.80;31.50
3678;DHT22;1855;50.934;6.958;2023-05-01T12:19:45;23.60;31.40
3678;DHT22;1855;50.934;6.958;2023-05-01T12:22:13;23.40;32.20
3678;DHT22;1855;50.934;6.958;2023-05-01T12:24:48;23.10;32.90
3678;DHT22;1855;50.934;6.958;2023-05-01T12:27:17;23.00;34.10
3678;DHT22;1855;50.934;6.958;2023-05-01T12:29:44;23.10;33.70
3678;DHT22;1855;50.934;6.958;2023-05-01T12:32:13;23.30;33.40
3678;DHT22;1855;50.934;6.958;2023-05-01T12:34:40;23.40;33.10
3678;DHT22;1855;50.934;6.958;2023-05-01T12:37:07;23.30;31.90
3678;DHT22;1855;50.934;6.958;2023-05-01T12:39:38;23.20;34.20
3678;DHT22;1855;50.934;6.958;2023-05-01T12:42:13;23.40;31.30
3678;DHT22;1855;50.934;6.958;2023-05-01T12:44:43;23.40;34.40
3678;DHT22;1855;50.934;6.958;2023-05-01T12:47:11;23.60;33.50
3678;DHT22;1855;50.934;6.958;2023-05-01T12:49:38;23.70;31.00
3678;DHT22;1855;50.934;6.958;2023-05-01T12:52:06;23.90;32.80
3678;DHT22;1855;50.934;6.958;2023-05-01T12:54:35;24.20;32.90
3678;DHT22;1855;50.934;6.958;2023-05-01T12:57:06;24.90;30.50
3678;DHT22;1855;50.934;6.958;2023-05-01T12:59:35;25.50;31.00
3678;DHT22;1855;50.934;6.958;2023-05-01T13:02:05;25.90;30.80
3678;DHT22;1855;50.934;6.958;2023-05-01T13:04:32;26.10;29.20
3678;DHT22;1855;50.934;6.958;2023-05-01T13:06:59;26.30;28.30
3678;DHT22;1855;50.934;6.958;2023-05-01T13:09:28;26.20;28.80
3678;DHT22;1855;50.934;6.958;2023-05-01T13:11:59;25.80;28.70
3678;DHT22;1855;50.934;6.958;2023-05-01T13:14:27;25.30;29.00
3678;DHT22;1855;50.934;6.958;2023-05-01T13:16:55;25.00;29.90
3678;DHT22;1855;50.934;6.958;2023-05-01T13:19:26;24.80;28.60
3678;DHT22;1855;50.934;6.958;2023-05-01T13:21:54;24.80;28.10
3678;DHT22;1855;50.934;6.958;2023-05-01T13:24:21;25.10;29.80
3678;DHT22;1855;50.934;6.958;2023-05-01T13:26:55;25.30;28.10
3678;DHT22;1855;50.934;6.958;2023-05-01T13:29:25;25.40;28.20
3678;DHT22;1855;50.934;6.958;2023-05-01T13:31:52;25.40;29.40
3678;DHT22;1855;50.934;6.958;2023-05-01T13:34:23;25.30;28.00
3678;DHT22;1855;50.934;6.958;2023-05-01T13:36:53;25.20;28.70
3678;DHT22;1855;50.934;6.958;2023-05-01T13:39:20;25.00;29.10
3678;DHT22;1855;50.934;6.958;2023-05-01T13:41:47;25.30;29.40
3678;DHT22;1855;50.934;6.958;2023-05-01T13:44:15;25.60;27.50
3678;DHT22;1855;50.934;6.958;2023-05-01T13:46:42;25.30;28.00
3678;DHT22;1855;50.934;6.958;2023-05-01T13:49:08;24.80;28.20
3678;DHT22;1855;50.934;6.958;2023-05-01T13:51:41;24.40;30.00
3678;DHT22;1855;50.934;6.958;2023-05-01T13:54:10;24.00;31.80
3678;DHT22;1855;50.934;6.958;2023-05-01T13:56:39;23.70;31.00
3678;DHT22;1855;50.934;6.958;2023-05-01T13:59:07;23.30;30.00
3678;DHT22;1855;50.934;6.958;2023-05-01T14:01:38;22.60;35.20
3678;DHT22;1855;50.934;6.958;2023-05-01T14:04:07;21.50;38.40
3678;DHT22;1855;50.934;6.958;2023-05-01T14:06:35;20.70;40.80
3678;DHT22;1855;50.934;6.958;2023-05-01T14:09:06;20.30;42.40
3678;DHT22;1855;50.934;6.958;2023-05-01T14:11:41;20.10;43.40
3678;DHT22;1855;50.934;6.958;2023-05-01T14:14:09;19.90;44.30
3678;DHT22;1855;50.934;6.958;2023-05-01T14:16:39;19.80;46.20
3678;DHT22;1855;50.934;6.958;2023-05-01T14:19:07;19.50;51.30
3678;DHT22;1855;50.934;6.958;2023-05-01T14:21:39;18.90;59.80
3678;DHT22;1855;50.934;6.958;2023-05-01T14:24:06;18.30;64.60
3678;DHT22;1855;50.934;6.958;2023-05-01T14:26:35;18.00;66.50
3678;DHT22;1855;50.934;6.958;2023-05-01T14:29:04;17.70;68.50
3678;DHT22;1855;50.934;6.958;2023-05-01T14:31:32;17.50;67.20
3678;DHT22;1855;50.934;6.958;2023-05-01T14:34:00;17.30;73.50
3678;DHT22;1855;50.934;6.958;2023-05-01T14:36:28;17.10;77.70
3678;DHT22;1855;50.934;6.958;2023-05-01T14:38:57;16.50;79.00
3678;DHT22;1855;50.934;6.958;2023-05-01T14:41:24;15.60;84.00
3678;DHT22;1855;50.934;6.958;2023-05-01T14:43:52;14.90;83.80
3678;DHT22;1855;50.934;6.958;2023-05-01T14:46:26;14.50;88.60
3678;DHT22;1855;50.934;6.958;2023-05-01T14:48:53;14.00;91.90
3678;DHT22;1855;50.934;6.958;2023-05-01T14:51:20;13.50;93.50
3678;DHT22;1855;50.934;6.958;2023-05-01T14:53:47;13.30;96.60
3678;DHT22;1855;50.934;6.958;2023-05-01T14:56:13;13.10;98.50
3678;DHT22;1855;50.934;6.958;2023-05-01T14:58:40;13.10;99.90
3678;DHT22;1855;50.934;6.958;2023-05-01T15:01:08;12.90;99.90
3678;DHT22;1855;50.934;6.958;2023-05-01T15:03:35;12.80;99.90
3678;DHT22;1855;50.934;6.958;2023-05-01T15:06:05;12.80;99.90
3678;DHT22;1855;50.934;6.958;2023-05-01T15:08:32;12.90;99.90
3678;DHT22;1855;50.934;6.958;2023-05-01T15:10:59;12.90;99.90
3678;DHT22;1855;50.934;6.958;2023-05-01T15:13:26;12.90;99.90
3678;DHT22;1855;50.934;6.958;2023-05-01T15:15:53;13.00;99.90
3678;DHT22;1855;50.934;6.958;2023-05-01T15:18:22;13.10;99.90
3678;DHT22;1855;50.934;6.958;2023-05-01T15:20:49;13.30;99.90
3678;DHT22;1855;50.934;6.958;2023-05-01T15:23:16;13.30;99.90
3678;DHT22;1855;50.934;6.958;2023-05-01T15:25:42;13.40;99.90
3678;DHT22;1855;50.934;6.958;2023-05-01T15:28:09;13.30;99.90
3678;DHT22;1855;50.934;6.958;2023-05-01T15:30:36;13.40;99.90
3678;DHT22;1855;50.934;6.958;2023-05-01T15:33:03;13.40;99.90
3678;DHT22;1855;50.934;6.958;2023-05-01T15:35:31;13.50;99.90
3678;DHT22;1855;50.934;6.958;2023-05-01T15:37:58;13.60;99.90
3678;DHT22;1855;50.934;6.958;2023-05-01T15:40:24;13.70;99.90
3678;DHT22;1855;50.934;6.958;2023-05-01T15:42:51;13.70;99.90
3678;DHT22;1855;50.934;6.958;2023-05-01T15:45:18;13.80;99.90
3678;DHT22;1855;50.934;6.958;2023-05-01T15:47:46;13.80;99.90
3678;DHT22;1855;50.934;6.958;2023-05-01T15:50:12;13.90;99.90
3678;DHT22;1855;50.934;6.958;2023-05-01T15:52:41;13.90;99.90
3678;DHT22;1855;50.934;6.958;2023-05-01T15:55:08;13.90;99.90
3678;DHT22;1855;50.934;6.958;2023-05-01T15:57:35;14.00;99.90
3678;DHT22;1855;50.934;6.958;2023-05-01T16:00:02;14.00;99.90
3678;DHT22;1855;50.934;6.958;2023-05-01T16:02:30;14.00;99.90
3678;DHT22;1855;50.934;6.958;2023-05-01T16:04:57;14.10;99.90
3678;DHT22;1855;50.934;6.958;2023-05-01T16:07:24;14.20;99.90
3678;DHT22;1855;50.934;6.958;2023-05-01T16:09:56;14.20;99.90
3678;DHT22;1855;50.934;6.958;2023-05-01T16:12:23;14.80;99.90
3678;DHT22;1855;50.934;6.958;2023-05-01T16:14:49;15.90;99.90
3678;DHT22;1855;50.934;6.958;2023-05-01T16:17:17;16.80;99.90
3678;DHT22;1855;50.934;6.958;2023-05-01T16:19:44;17.60;99.90